Impacts METAR Board
IDs:

KSAT - San Antonio Intl, TX, US

Updated at: 0200 UTC 15 Aug 2020
Potential Impact None Slight Moderate High
Time 14/14Z 14/15Z 14/16Z 14/17Z 14/18Z 14/19Z 14/20Z 14/21Z 14/22Z 14/23Z 15/00Z 15/01Z 15/02Z
Temp82 85 89 93 96 99 101 101 104 103 102 98 96
Dewpt72 70 67 64 61 59 57 58 56 56 55 57 59
Altim29.99 29.98 29.98 29.98 29.96 29.94 29.91 29.88 29.86 29.85 29.84 29.85 29.86
VIS10 10 10 10 10 10 10 10 10 10 10 10 10
CIG-- -- -- -- -- -- -- -- -- -- -- -- --
CoverFEWCLRCLRCLRCLRCLRCLRCLRCLRCLRCLRCLRCLR
FltCatVFRVFRVFRVFRVFRVFRVFRVFRVFRVFRVFRVFRVFR
WX--------------------------
WDir200200200200160140160130180160160140160
WSpd11 10 9 8 6 8 10 4 13 11 11 12 9
WGst-- -- 16 17 -- 16 -- -- 17 15 15 -- --
Raw hourly METARs
KSAT 141351Z 20011KT 10SM FEW014 28/22 A2999 RMK AO2 SLP134 T02780222
KSAT 141451Z 20010KT 10SM CLR 29/21 A2998 RMK AO2 SLP133 T02940211 50005
KSAT 141551Z 20009G16KT 10SM CLR 32/19 A2998 RMK AO2 SLP132 T03170194
KSAT 141651Z 20008G17KT 10SM CLR 34/18 A2998 RMK AO2 SLP131 T03390178
KSAT 141751Z 16006KT 10SM CLR 36/16 A2996 RMK AO2 SLP126 T03560161 10361 20256 58007
KSAT 141851Z 14008G16KT 10SM CLR 37/15 A2994 RMK AO2 SLP118 T03720150
KSAT 141951Z 16010KT 10SM CLR 38/14 A2991 RMK AO2 SLP107 T03830139
KSAT 142051Z 13004KT 10SM CLR 38/14 A2988 RMK AO2 SLP098 T03830144 58027
KSAT 142151Z 18013G17KT 10SM CLR 40/13 A2986 RMK AO2 SLP090 T04000133
KSAT 142251Z 16011G15KT 10SM CLR 39/13 A2985 RMK AO2 SLP087 T03940133
KSAT 142351Z 16011G15KT 10SM CLR 39/13 A2984 RMK AO2 SLP083 T03890128 10400 20350 56014
KSAT 150051Z 14012KT 10SM CLR 37/14 A2985 RMK AO2 SLP086 T03670139
KSAT 150151Z 16009KT 10SM CLR 36/15 A2986 RMK AO2 SLP092 T03560150